createdAt,value
2022-11-17T00:00:42.916Z,3.00
2022-11-17T00:05:46.293Z,3.00
2022-11-17T00:10:49.731Z,3.00
2022-11-17T00:15:53.177Z,3.00
2022-11-17T00:21:14.790Z,2.90
2022-11-17T00:26:21.353Z,2.90
2022-11-17T00:31:46.251Z,2.90
2022-11-17T00:36:54.849Z,2.90
2022-11-17T00:41:59.249Z,2.80
2022-11-17T00:47:02.441Z,2.80
2022-11-17T00:52:06.263Z,2.80
2022-11-17T00:57:10.010Z,2.80
2022-11-17T01:02:13.491Z,2.70
2022-11-17T01:07:17.027Z,2.70
2022-11-17T01:12:20.591Z,2.70
2022-11-17T01:17:23.812Z,2.70
2022-11-17T01:22:27.383Z,2.70
2022-11-17T01:27:30.500Z,2.60
2022-11-17T01:32:33.933Z,2.50
2022-11-17T01:37:37.159Z,2.50
2022-11-17T01:42:40.680Z,2.50
2022-11-17T01:47:47.629Z,2.40
2022-11-17T01:52:54.311Z,2.30
2022-11-17T01:58:10.061Z,2.30
2022-11-17T02:03:14.266Z,2.30
2022-11-17T02:08:20.341Z,2.30
2022-11-17T02:13:24.270Z,2.30
2022-11-17T02:18:27.499Z,2.30
2022-11-17T02:23:30.647Z,2.20
2022-11-17T02:28:37.988Z,2.20
2022-11-17T02:33:44.580Z,2.10
2022-11-17T02:38:59.880Z,2.10
2022-11-17T02:44:09.259Z,2.00
2022-11-17T02:49:36.293Z,2.00
2022-11-17T02:54:39.689Z,1.90
2022-11-17T02:59:48.619Z,1.80
2022-11-17T03:05:13.059Z,1.70
2022-11-17T03:10:27.464Z,1.70
2022-11-17T03:15:48.498Z,1.60
2022-11-17T03:21:13.877Z,1.60
2022-11-17T03:26:25.918Z,1.60
2022-11-17T03:31:30.729Z,1.60
2022-11-17T03:36:38.647Z,1.60
2022-11-17T03:41:47.077Z,1.50
2022-11-17T03:52:13.239Z,1.50
2022-11-17T03:57:23.208Z,1.40
2022-11-17T04:02:27.837Z,1.40
2022-11-17T04:07:31.022Z,1.40
2022-11-17T04:12:52.788Z,1.30
2022-11-17T04:17:56.585Z,1.30
2022-11-17T04:23:08.898Z,1.30
2022-11-17T04:28:30.627Z,1.20
2022-11-17T04:33:34.862Z,1.20
2022-11-17T04:38:41.418Z,1.10
2022-11-17T04:43:44.956Z,1.10
2022-11-17T04:48:49.037Z,1.10
2022-11-17T04:53:53.107Z,1.00
2022-11-17T04:58:57.196Z,1.00
2022-11-17T05:04:07.009Z,1.00
2022-11-17T05:09:13.137Z,0.90
2022-11-17T05:14:19.638Z,0.90
2022-11-17T05:19:25.228Z,0.90
2022-11-17T05:24:29.298Z,0.80
2022-11-17T05:29:32.930Z,0.80
2022-11-17T05:34:36.479Z,0.70
2022-11-17T05:39:40.020Z,0.70
2022-11-17T05:44:43.601Z,0.70
2022-11-17T05:49:47.142Z,0.70
2022-11-17T05:54:50.659Z,0.60
2022-11-17T06:00:00.699Z,0.60
2022-11-17T06:05:04.919Z,0.50
2022-11-17T06:10:08.772Z,0.40
2022-11-17T06:15:12.360Z,0.40
2022-11-17T06:20:22.626Z,0.30
2022-11-17T06:25:27.619Z,0.20
2022-11-17T06:30:31.820Z,0.10
2022-11-17T06:35:35.705Z,0.10
2022-11-17T06:40:39.379Z,0.00
2022-11-17T06:45:44.899Z,0.00
2022-11-17T06:50:49.483Z,0.00
2022-11-17T06:56:05.886Z,0.00
2022-11-17T07:01:11.927Z,-0.10
2022-11-17T07:06:16.560Z,-0.10
2022-11-17T07:11:20.342Z,-0.10
2022-11-17T07:16:24.232Z,-0.10
2022-11-17T07:21:27.869Z,0.00
2022-11-17T07:26:31.040Z,0.10
2022-11-17T07:31:37.986Z,0.20
2022-11-17T07:36:41.789Z,0.30
2022-11-17T07:41:45.760Z,0.40
2022-11-17T07:46:49.302Z,0.50
2022-11-17T07:51:53.023Z,0.60
2022-11-17T07:56:56.544Z,0.70
2022-11-17T08:02:00.068Z,0.80
2022-11-17T08:07:03.999Z,1.00
2022-11-17T08:12:07.604Z,1.20
2022-11-17T08:17:11.648Z,1.40
2022-11-17T08:22:15.371Z,1.50
2022-11-17T08:27:18.895Z,1.70
2022-11-17T08:32:23.000Z,1.70
2022-11-17T08:37:26.503Z,1.70
2022-11-17T08:42:30.039Z,1.70
2022-11-17T08:47:33.580Z,1.70
2022-11-17T08:52:37.346Z,1.70
2022-11-17T08:58:16.889Z,2.00
2022-11-17T09:03:21.049Z,2.10
2022-11-17T09:13:47.811Z,2.00
2022-11-17T09:18:56.407Z,2.00
2022-11-17T09:23:59.579Z,1.90
2022-11-17T09:29:04.020Z,1.90
2022-11-17T09:34:07.580Z,1.90
2022-11-17T09:39:11.086Z,2.00
2022-11-17T09:44:42.154Z,2.00
2022-11-17T09:50:07.565Z,2.00
2022-11-17T09:55:33.866Z,2.00
2022-11-17T10:00:39.407Z,1.90
2022-11-17T10:05:43.081Z,1.90
2022-11-17T10:10:52.199Z,1.90
2022-11-17T10:16:01.944Z,2.00
2022-11-17T10:21:07.532Z,2.00
2022-11-17T10:26:16.208Z,2.00
2022-11-17T10:31:39.840Z,2.10
2022-11-17T10:36:55.160Z,2.10
2022-11-17T10:41:58.844Z,2.10
2022-11-17T10:47:04.862Z,2.20
2022-11-17T10:52:19.398Z,2.30
2022-11-17T10:57:27.229Z,2.10
2022-11-17T11:02:39.566Z,2.10
2022-11-17T11:08:22.334Z,2.10
2022-11-17T11:13:59.600Z,2.10
2022-11-17T11:19:02.919Z,2.10
2022-11-17T11:24:43.548Z,2.00
2022-11-17T11:30:05.220Z,2.00
2022-11-17T11:35:39.342Z,2.10
2022-11-17T11:40:51.028Z,2.10
2022-11-17T11:46:00.261Z,2.00
2022-11-17T11:51:11.969Z,1.90
2022-11-17T11:56:23.287Z,1.80
2022-11-17T12:01:28.788Z,1.80
2022-11-17T12:07:08.034Z,1.70
2022-11-17T12:12:17.877Z,1.70
2022-11-17T12:17:24.797Z,1.60
2022-11-17T12:22:31.775Z,1.60
2022-11-17T12:27:35.162Z,1.50
2022-11-17T12:32:54.406Z,1.50
2022-11-17T12:38:17.888Z,1.60
2022-11-17T12:43:26.040Z,1.50
2022-11-17T12:48:36.528Z,1.50
2022-11-17T12:54:05.066Z,1.40
2022-11-17T12:59:30.287Z,1.40
2022-11-17T13:04:49.636Z,1.30
2022-11-17T13:10:24.171Z,1.40
2022-11-17T13:15:27.628Z,1.30
2022-11-17T13:20:31.430Z,1.30
2022-11-17T13:25:35.841Z,1.20
2022-11-17T13:30:39.235Z,1.30
2022-11-17T13:35:42.500Z,1.30
2022-11-17T13:40:46.698Z,1.30
2022-11-17T13:46:50.475Z,1.20
2022-11-17T13:51:54.120Z,1.20
2022-11-17T13:57:29.090Z,1.20
2022-11-17T14:02:32.329Z,1.20
2022-11-17T14:07:38.722Z,1.10
2022-11-17T14:12:44.260Z,1.10
2022-11-17T14:18:06.018Z,1.10
2022-11-17T14:23:09.084Z,1.10
2022-11-17T14:28:27.658Z,1.10
2022-11-17T14:33:31.079Z,1.10
2022-11-17T14:38:34.699Z,1.10
2022-11-17T14:43:38.059Z,1.10
2022-11-17T14:48:42.060Z,1.10
2022-11-17T14:53:46.523Z,1.00
2022-11-17T14:58:58.706Z,1.00
2022-11-17T15:04:27.162Z,1.10
2022-11-17T15:09:33.218Z,1.10
2022-11-17T15:14:36.829Z,1.00
2022-11-17T15:19:40.445Z,0.80
2022-11-17T15:24:50.282Z,0.70
2022-11-17T15:29:54.288Z,0.60
2022-11-17T15:34:57.789Z,0.50
2022-11-17T15:40:01.099Z,0.50
2022-11-17T15:45:05.250Z,0.40
2022-11-17T15:50:09.338Z,0.20
2022-11-17T15:55:12.739Z,0.10
2022-11-17T16:00:16.710Z,0.00
2022-11-17T16:05:20.379Z,-0.20
2022-11-17T16:10:24.015Z,-0.30
2022-11-17T16:15:28.039Z,-0.40
2022-11-17T16:20:31.744Z,-0.50
2022-11-17T16:25:43.749Z,-0.70
2022-11-17T16:30:47.324Z,-0.80
2022-11-17T16:35:50.783Z,-0.90
2022-11-17T16:40:54.435Z,-1.00
2022-11-17T16:45:58.072Z,-1.00
2022-11-17T16:51:08.408Z,-1.10
2022-11-17T16:56:13.520Z,-1.10
2022-11-17T17:01:20.339Z,-1.10
2022-11-17T17:06:25.539Z,-1.10
2022-11-17T17:11:32.289Z,-1.10
2022-11-17T17:16:37.636Z,-1.10
2022-11-17T17:21:42.582Z,-1.10
2022-11-17T17:26:46.785Z,-1.10
2022-11-17T17:31:50.681Z,-1.10
2022-11-17T17:36:55.124Z,-1.10
2022-11-17T17:42:01.663Z,-1.20
2022-11-17T17:47:06.681Z,-1.20
2022-11-17T17:52:13.968Z,-1.20
2022-11-17T17:57:20.579Z,-1.20
2022-11-17T18:02:24.779Z,-1.10
2022-11-17T18:07:29.532Z,-1.00
2022-11-17T18:12:35.703Z,-1.00
2022-11-17T18:17:40.147Z,-0.90
2022-11-17T18:22:45.449Z,-0.90
2022-11-17T18:27:52.941Z,-0.80
2022-11-17T18:33:01.782Z,-0.80
2022-11-17T18:38:07.939Z,-0.80
2022-11-17T18:43:17.668Z,-0.80
2022-11-17T18:48:24.000Z,-0.70
2022-11-17T18:53:33.641Z,-0.70
2022-11-17T18:58:41.276Z,-0.60
2022-11-17T19:03:49.840Z,-0.70
2022-11-17T19:08:55.139Z,-0.70
2022-11-17T19:14:05.707Z,-0.70
2022-11-17T19:19:14.431Z,-0.80
2022-11-17T19:24:22.463Z,-0.90
2022-11-17T19:29:32.499Z,-0.90
2022-11-17T19:34:43.620Z,-1.00
2022-11-17T19:39:49.052Z,-1.10
2022-11-17T19:44:53.400Z,-1.20
2022-11-17T19:49:57.871Z,-1.30
2022-11-17T19:55:04.859Z,-1.30
2022-11-17T20:00:10.321Z,-1.30
2022-11-17T20:05:15.199Z,-1.30
2022-11-17T20:10:20.829Z,-1.40
2022-11-17T20:15:34.263Z,-1.50
2022-11-17T20:20:39.360Z,-1.40
2022-11-17T20:25:48.723Z,-1.30
2022-11-17T20:30:57.341Z,-1.20
2022-11-17T20:36:06.119Z,-1.30
2022-11-17T20:41:13.642Z,-1.30
2022-11-17T20:46:21.461Z,-1.40
2022-11-17T20:51:28.602Z,-1.40
2022-11-17T20:56:34.485Z,-1.50
2022-11-17T21:01:40.143Z,-1.60
2022-11-17T21:06:45.101Z,-1.70
2022-11-17T21:11:57.841Z,-1.70
2022-11-17T21:17:04.597Z,-1.80
2022-11-17T21:22:10.894Z,-1.90
2022-11-17T21:27:15.305Z,-2.00
2022-11-17T21:32:19.006Z,-2.10
2022-11-17T21:37:22.820Z,-2.10
2022-11-17T21:42:27.701Z,-2.20
2022-11-17T21:47:33.287Z,-2.30
2022-11-17T21:52:37.119Z,-2.40
2022-11-17T21:57:40.671Z,-2.50
2022-11-17T22:02:44.384Z,-2.60
2022-11-17T22:07:47.801Z,-2.60
2022-11-17T22:12:51.081Z,-2.70
2022-11-17T22:17:54.659Z,-2.60
2022-11-17T22:22:58.340Z,-2.60
2022-11-17T22:28:01.882Z,-2.60
2022-11-17T22:33:05.621Z,-2.60
2022-11-17T22:38:09.179Z,-2.60
2022-11-17T22:43:15.431Z,-2.60
2022-11-17T22:48:19.021Z,-2.70
2022-11-17T22:53:22.579Z,-2.70
2022-11-17T22:58:25.740Z,-2.70
2022-11-17T23:03:29.362Z,-2.60
2022-11-17T23:08:33.459Z,-2.60
2022-11-17T23:13:37.700Z,-2.60
2022-11-17T23:18:41.169Z,-2.60
2022-11-17T23:23:44.701Z,-2.60
2022-11-17T23:28:47.958Z,-2.60
2022-11-17T23:33:51.598Z,-2.50
2022-11-17T23:38:56.939Z,-2.50
2022-11-17T23:44:00.740Z,-2.50
2022-11-17T23:49:04.398Z,-2.50
2022-11-17T23:54:07.840Z,-2.50
2022-11-17T23:59:11.439Z,-2.50
